createdAt,value
2023-04-15T00:03:05.509Z,1.30
2023-04-15T00:08:08.334Z,1.13
2023-04-15T00:13:10.956Z,1.30
2023-04-15T00:18:14.013Z,1.10
2023-04-15T00:23:17.016Z,1.13
2023-04-15T00:28:19.756Z,0.80
2023-04-15T00:33:22.896Z,1.30
2023-04-15T00:38:25.523Z,1.50
2023-04-15T00:43:28.571Z,1.67
2023-04-15T00:48:31.894Z,1.60
2023-04-15T00:53:34.689Z,1.08
2023-04-15T00:58:37.913Z,1.20
2023-04-15T01:03:40.737Z,1.20
2023-04-15T01:08:44.114Z,1.13
2023-04-15T01:13:47.923Z,0.88
2023-04-15T01:18:50.757Z,1.20
2023-04-15T01:23:57.257Z,1.17
2023-04-15T01:29:00.311Z,1.27
2023-04-15T01:34:03.728Z,1.45
2023-04-15T01:39:24.655Z,1.00
2023-04-15T01:44:27.912Z,1.17
2023-04-15T01:49:32.413Z,1.33
2023-04-15T01:54:37.846Z,1.13
2023-04-15T01:59:42.459Z,1.00
2023-04-15T02:04:46.498Z,1.10
2023-04-15T02:09:50.471Z,1.00
2023-04-15T02:14:54.450Z,1.17
2023-04-15T02:19:59.904Z,0.93
2023-04-15T02:25:04.465Z,0.88
2023-04-15T02:30:09.574Z,1.00
2023-04-15T02:35:13.647Z,0.90
2023-04-15T02:40:17.941Z,0.82
2023-04-15T02:45:26.122Z,1.10
2023-04-15T02:50:30.139Z,0.90
2023-04-15T02:55:34.244Z,0.90
2023-04-15T03:00:38.473Z,1.00
2023-04-15T03:05:42.629Z,1.00
2023-04-15T03:10:46.539Z,0.90
2023-04-15T03:15:51.054Z,0.80
2023-04-15T03:20:55.056Z,1.00
2023-04-15T03:26:03.059Z,0.82
2023-04-15T03:31:08.420Z,1.30
2023-04-15T03:36:12.385Z,1.20
2023-04-15T03:41:16.452Z,1.40
2023-04-15T03:46:20.642Z,1.95
2023-04-15T03:51:24.536Z,2.05
2023-04-15T03:56:28.557Z,1.45
2023-04-15T04:01:32.584Z,1.77
2023-04-15T04:06:36.558Z,2.28
2023-04-15T04:11:40.445Z,2.30
2023-04-15T04:16:45.092Z,2.25
2023-04-15T04:21:48.992Z,2.30
2023-04-15T04:26:53.119Z,2.17
2023-04-15T04:31:57.079Z,2.40
2023-04-15T04:37:01.090Z,1.90
2023-04-15T04:42:04.937Z,2.38
2023-04-15T04:47:08.849Z,2.30
2023-04-15T04:52:13.182Z,2.07
2023-04-15T04:57:17.341Z,2.00
2023-04-15T05:02:21.875Z,2.20
2023-04-15T05:07:26.024Z,2.55
2023-04-15T05:12:29.925Z,2.20
2023-04-15T05:17:35.596Z,1.70
2023-04-15T05:22:39.680Z,1.67
2023-04-15T05:27:43.747Z,1.50
2023-04-15T05:32:47.822Z,1.90
2023-04-15T05:37:51.804Z,1.52
2023-04-15T05:42:55.785Z,1.67
2023-04-15T05:47:59.772Z,1.50
2023-04-15T05:53:03.825Z,1.60
2023-04-15T05:58:08.291Z,1.50
2023-04-15T06:03:12.901Z,1.67
2023-04-15T06:08:17.388Z,1.80
2023-04-15T06:13:21.369Z,1.52
2023-04-15T06:18:26.069Z,1.60
2023-04-15T06:23:30.341Z,1.70
2023-04-15T06:28:34.414Z,1.45
2023-04-15T06:33:38.263Z,1.80
2023-04-15T06:38:44.479Z,1.60
2023-04-15T06:43:48.536Z,1.58
2023-04-15T06:48:52.779Z,1.80
2023-04-15T06:53:57.228Z,1.70
2023-04-15T06:59:01.285Z,1.90
2023-04-15T07:04:05.643Z,1.70
2023-04-15T07:09:10.146Z,1.60
2023-04-15T07:14:14.221Z,1.50
2023-04-15T07:19:18.145Z,1.45
2023-04-15T07:24:23.600Z,1.50
2023-04-15T07:29:27.729Z,1.20
2023-04-15T07:34:32.684Z,1.60
2023-04-15T07:39:37.367Z,1.50
2023-04-15T07:44:41.473Z,1.30
2023-04-15T07:49:45.690Z,1.33
2023-04-15T07:54:49.606Z,1.33
2023-04-15T07:59:53.535Z,1.65
2023-04-15T08:04:58.161Z,1.27
2023-04-15T08:10:02.062Z,1.10
2023-04-15T08:15:08.522Z,1.83
2023-04-15T08:20:13.956Z,1.42
2023-04-15T08:25:17.995Z,1.85
2023-04-15T08:30:22.187Z,2.10
2023-04-15T08:35:26.326Z,1.45
2023-04-15T08:40:45.891Z,1.60
2023-04-15T08:45:52.049Z,1.58
2023-04-15T08:50:56.190Z,1.70
2023-04-15T08:56:05.556Z,1.75
2023-04-15T09:01:09.863Z,2.20
2023-04-15T09:06:15.170Z,2.30
2023-04-15T09:11:20.305Z,2.65
2023-04-15T09:16:24.829Z,1.98
2023-04-15T09:21:29.906Z,1.92
2023-04-15T09:26:36.324Z,1.95
2023-04-15T09:31:41.524Z,1.63
2023-04-15T09:36:50.981Z,1.83
2023-04-15T09:42:08.447Z,1.70
2023-04-15T09:47:28.841Z,1.60
2023-04-15T09:52:33.061Z,2.72
2023-04-15T09:57:38.313Z,2.00
2023-04-15T10:02:43.169Z,2.03
2023-04-15T10:07:47.213Z,2.13
2023-04-15T10:12:54.669Z,2.05
2023-04-15T10:18:01.818Z,2.20
2023-04-15T10:23:08.343Z,1.80
2023-04-15T10:28:16.099Z,1.52
2023-04-15T10:33:24.912Z,2.00
2023-04-15T10:38:37.714Z,1.95
2023-04-15T10:43:58.004Z,1.73
2023-04-15T10:49:17.351Z,1.87
2023-04-15T10:54:27.411Z,1.70
2023-04-15T10:59:38.241Z,1.50
2023-04-15T11:04:59.120Z,1.90
2023-04-15T11:10:03.628Z,1.63
2023-04-15T11:15:35.640Z,2.07
2023-04-15T11:20:41.441Z,1.45
2023-04-15T11:25:46.297Z,1.90
2023-04-15T11:30:50.656Z,1.80
2023-04-15T11:35:55.517Z,1.88
2023-04-15T11:40:59.650Z,1.60
2023-04-15T11:46:04.924Z,1.77
2023-04-15T11:51:09.244Z,1.55
2023-04-15T11:56:17.682Z,1.60
2023-04-15T12:01:20.664Z,1.70
2023-04-15T12:06:24.835Z,1.97
2023-04-15T12:11:31.745Z,2.00
2023-04-15T12:16:49.358Z,1.20
2023-04-15T12:22:00.042Z,1.60
2023-04-15T12:27:13.503Z,1.70
2023-04-15T12:32:19.997Z,1.70
2023-04-15T12:37:23.006Z,1.90
2023-04-15T12:42:25.939Z,1.50
2023-04-15T12:47:28.783Z,1.30
2023-04-15T12:52:31.538Z,18.40
2023-04-15T12:57:34.318Z,2.70
2023-04-15T13:02:37.416Z,2.00
2023-04-15T13:07:40.238Z,2.70
2023-04-15T13:12:43.186Z,2.03
2023-04-15T13:17:46.074Z,1.98
2023-04-15T13:22:48.963Z,1.30
2023-04-15T13:27:51.780Z,1.40
2023-04-15T13:32:54.775Z,1.45
2023-04-15T13:37:57.584Z,1.67
2023-04-15T13:43:00.529Z,1.60
2023-04-15T13:48:03.425Z,1.80
2023-04-15T13:53:06.426Z,1.77
2023-04-15T13:58:09.999Z,1.88
2023-04-15T14:03:13.025Z,1.52
2023-04-15T14:08:16.009Z,1.38
2023-04-15T14:13:19.844Z,1.63
2023-04-15T14:18:22.866Z,2.00
2023-04-15T14:23:25.576Z,1.88
2023-04-15T14:28:28.340Z,1.85
2023-04-15T14:33:31.105Z,2.10
2023-04-15T14:38:38.890Z,2.00
2023-04-15T14:43:41.781Z,1.83
2023-04-15T14:48:44.561Z,2.10
2023-04-15T14:53:47.278Z,1.70
2023-04-15T14:58:50.684Z,2.20
2023-04-15T15:03:53.665Z,2.13
2023-04-15T15:08:56.434Z,1.77
2023-04-15T15:13:59.226Z,2.25
2023-04-15T15:19:02.092Z,2.28
2023-04-15T15:24:05.565Z,2.67
2023-04-15T15:29:08.408Z,3.03
2023-04-15T15:34:11.184Z,2.85
2023-04-15T15:39:14.009Z,2.83
2023-04-15T15:44:16.842Z,2.28
2023-04-15T15:49:20.228Z,2.30
2023-04-15T15:54:22.993Z,2.67
2023-04-15T15:59:26.013Z,2.53
2023-04-15T16:04:29.374Z,2.67
2023-04-15T16:09:32.555Z,2.45
2023-04-15T16:14:35.357Z,2.38
2023-04-15T16:19:38.188Z,2.07
2023-04-15T16:24:41.092Z,2.10
2023-04-15T16:29:43.813Z,2.53
2023-04-15T16:34:46.552Z,3.00
2023-04-15T16:39:49.308Z,2.70
2023-04-15T16:44:52.046Z,2.33
2023-04-15T16:49:54.712Z,2.40
2023-04-15T16:54:57.580Z,2.20
2023-04-15T17:00:00.566Z,2.30
2023-04-15T17:05:03.880Z,2.53
2023-04-15T17:10:07.220Z,3.37
2023-04-15T17:15:10.802Z,2.92
2023-04-15T17:20:18.790Z,3.10
2023-04-15T17:25:22.238Z,3.53
2023-04-15T17:30:27.320Z,3.85
2023-04-15T17:35:50.171Z,4.50
2023-04-15T17:41:13.294Z,4.95
2023-04-15T17:46:36.142Z,4.50
2023-04-15T17:51:58.738Z,4.60
2023-04-15T17:57:21.439Z,4.68
2023-04-15T18:02:44.248Z,4.43
2023-04-15T18:08:07.501Z,4.55
2023-04-15T18:13:30.208Z,3.42
2023-04-15T18:18:53.661Z,4.23
2023-04-15T18:23:56.280Z,4.47
2023-04-15T18:28:59.086Z,4.87
2023-04-15T18:34:05.352Z,4.78
2023-04-15T18:39:08.645Z,4.32
2023-04-15T18:44:11.398Z,4.67
2023-04-15T18:49:14.146Z,4.75
2023-04-15T18:54:16.972Z,4.00
2023-04-15T18:59:29.648Z,4.65
2023-04-15T19:04:33.950Z,4.95
2023-04-15T19:09:37.047Z,4.40
2023-04-15T19:14:39.750Z,6.95
2023-04-15T19:19:43.096Z,5.07
2023-04-15T19:24:46.622Z,6.30
2023-04-15T19:29:49.693Z,7.50
2023-04-15T19:34:52.409Z,7.87
2023-04-15T19:39:56.392Z,8.88
2023-04-15T19:44:59.377Z,9.30
2023-04-15T19:50:02.243Z,7.90
2023-04-15T19:55:05.518Z,8.25
2023-04-15T20:00:09.682Z,8.00
2023-04-15T20:05:12.922Z,8.30
2023-04-15T20:10:15.559Z,7.80
2023-04-15T20:15:18.366Z,8.00
2023-04-15T20:20:22.416Z,7.80
2023-04-15T20:25:25.247Z,7.73
2023-04-15T20:30:29.381Z,6.93
2023-04-15T20:35:32.321Z,7.13
2023-04-15T20:40:35.184Z,7.38
2023-04-15T20:45:38.854Z,7.22
2023-04-15T20:50:41.995Z,7.30
2023-04-15T20:55:44.996Z,8.27
2023-04-15T21:00:48.132Z,7.87
2023-04-15T21:05:51.124Z,7.80
2023-04-15T21:10:53.728Z,8.07
2023-04-15T21:15:56.660Z,8.13
2023-04-15T21:21:01.195Z,7.88
2023-04-15T21:26:04.141Z,8.50
2023-04-15T21:31:07.566Z,8.65
2023-04-15T21:36:10.436Z,8.48
2023-04-15T21:41:13.286Z,8.60
2023-04-15T21:46:22.223Z,8.57
2023-04-15T21:51:26.978Z,9.13
2023-04-15T21:56:29.724Z,9.20
2023-04-15T22:01:32.604Z,8.93
2023-04-15T22:06:35.447Z,8.70
2023-04-15T22:11:39.444Z,8.32
2023-04-15T22:16:42.238Z,8.33
2023-04-15T22:21:44.988Z,8.10
2023-04-15T22:26:47.744Z,7.90
2023-04-15T22:31:51.138Z,8.77
2023-04-15T22:36:54.200Z,8.45
2023-04-15T22:41:57.208Z,8.47
2023-04-15T22:46:59.912Z,8.38
2023-04-15T22:52:02.657Z,7.53
2023-04-15T22:57:05.432Z,8.60
2023-04-15T23:02:08.328Z,8.02
2023-04-15T23:07:11.767Z,6.63
2023-04-15T23:12:14.733Z,7.47
2023-04-15T23:17:17.414Z,7.97
2023-04-15T23:22:20.262Z,7.87
2023-04-15T23:27:23.126Z,7.38
2023-04-15T23:32:27.257Z,6.87
2023-04-15T23:37:31.850Z,8.43
2023-04-15T23:42:34.811Z,8.25
2023-04-15T23:47:38.616Z,7.23
2023-04-15T23:52:41.196Z,7.75
2023-04-15T23:57:43.873Z,7.80
